sensor_id;sensor_type;location;lat;lon;timestamp;temperature;humidity
19665;DHT22;9980;51.020;7.772;2023-03-31T00:00:46;13.30;99.90
19665;DHT22;9980;51.020;7.772;2023-03-31T00:03:18;13.30;99.90
19665;DHT22;9980;51.020;7.772;2023-03-31T00:05:57;13.30;99.90
19665;DHT22;9980;51.020;7.772;2023-03-31T00:08:26;13.30;99.90
19665;DHT22;9980;51.020;7.772;2023-03-31T00:10:58;13.20;99.90
19665;DHT22;9980;51.020;7.772;2023-03-31T00:13:29;13.20;99.90
19665;DHT22;9980;51.020;7.772;2023-03-31T00:15:58;13.20;99.90
19665;DHT22;9980;51.020;7.772;2023-03-31T00:18:27;13.20;99.90
19665;DHT22;9980;51.020;7.772;2023-03-31T00:21:08;13.20;99.90
19665;DHT22;9980;51.020;7.772;2023-03-31T00:23:57;13.20;99.90
19665;DHT22;9980;51.020;7.772;2023-03-31T00:26:27;13.20;99.90
19665;DHT22;9980;51.020;7.772;2023-03-31T00:28:55;13.20;99.90
19665;DHT22;9980;51.020;7.772;2023-03-31T00:31:23;13.20;99.90
19665;DHT22;9980;51.020;7.772;2023-03-31T00:33:52;13.20;99.90
19665;DHT22;9980;51.020;7.772;2023-03-31T00:36:19;13.20;99.90
19665;DHT22;9980;51.020;7.772;2023-03-31T00:38:47;13.20;99.90
19665;DHT22;9980;51.020;7.772;2023-03-31T00:41:15;13.20;99.90
19665;DHT22;9980;51.020;7.772;2023-03-31T00:47:05;13.20;99.90
19665;DHT22;9980;51.020;7.772;2023-03-31T00:49:50;13.20;99.90
19665;DHT22;9980;51.020;7.772;2023-03-31T00:52:31;13.20;99.90
19665;DHT22;9980;51.020;7.772;2023-03-31T00:55:08;13.20;99.90
19665;DHT22;9980;51.020;7.772;2023-03-31T00:57:40;13.20;99.90
19665;DHT22;9980;51.020;7.772;2023-03-31T01:00:11;13.10;99.90
19665;DHT22;9980;51.020;7.772;2023-03-31T01:02:46;13.10;99.90
19665;DHT22;9980;51.020;7.772;2023-03-31T01:05:25;13.10;99.90
19665;DHT22;9980;51.020;7.772;2023-03-31T01:07:57;13.10;99.90
19665;DHT22;9980;51.020;7.772;2023-03-31T01:10:26;13.10;99.90
19665;DHT22;9980;51.020;7.772;2023-03-31T01:12:54;13.10;99.90
19665;DHT22;9980;51.020;7.772;2023-03-31T01:15:23;13.00;99.90
19665;DHT22;9980;51.020;7.772;2023-03-31T01:17:51;13.00;99.90
19665;DHT22;9980;51.020;7.772;2023-03-31T01:23:02;13.00;99.90
19665;DHT22;9980;51.020;7.772;2023-03-31T01:26:14;13.00;99.90
19665;DHT22;9980;51.020;7.772;2023-03-31T01:47:18;13.00;99.90
19665;DHT22;9980;51.020;7.772;2023-03-31T01:49:59;13.00;99.90
19665;DHT22;9980;51.020;7.772;2023-03-31T01:52:41;13.00;99.90
19665;DHT22;9980;51.020;7.772;2023-03-31T01:55:22;13.00;99.90
19665;DHT22;9980;51.020;7.772;2023-03-31T01:57:59;13.00;99.90
19665;DHT22;9980;51.020;7.772;2023-03-31T02:00:37;12.90;99.90
19665;DHT22;9980;51.020;7.772;2023-03-31T02:03:14;12.90;99.90
19665;DHT22;9980;51.020;7.772;2023-03-31T02:06:17;13.00;99.90
19665;DHT22;9980;51.020;7.772;2023-03-31T02:08:53;12.90;99.90
19665;DHT22;9980;51.020;7.772;2023-03-31T02:11:24;13.00;99.90
19665;DHT22;9980;51.020;7.772;2023-03-31T02:13:54;12.90;99.90
19665;DHT22;9980;51.020;7.772;2023-03-31T02:16:25;12.90;99.90
19665;DHT22;9980;51.020;7.772;2023-03-31T02:18:57;13.00;99.90
19665;DHT22;9980;51.020;7.772;2023-03-31T02:21:32;12.90;99.90
19665;DHT22;9980;51.020;7.772;2023-03-31T02:24:10;12.90;99.90
19665;DHT22;9980;51.020;7.772;2023-03-31T02:26:46;12.90;99.90
19665;DHT22;9980;51.020;7.772;2023-03-31T02:29:19;12.90;99.90
19665;DHT22;9980;51.020;7.772;2023-03-31T02:34:41;12.90;99.90
19665;DHT22;9980;51.020;7.772;2023-03-31T02:37:08;13.00;99.90
19665;DHT22;9980;51.020;7.772;2023-03-31T02:39:36;12.90;99.90
19665;DHT22;9980;51.020;7.772;2023-03-31T02:42:07;12.90;99.90
19665;DHT22;9980;51.020;7.772;2023-03-31T02:44:35;12.90;99.90
19665;DHT22;9980;51.020;7.772;2023-03-31T02:47:07;12.90;99.90
19665;DHT22;9980;51.020;7.772;2023-03-31T02:49:40;12.90;99.90
19665;DHT22;9980;51.020;7.772;2023-03-31T02:55:36;12.90;99.90
19665;DHT22;9980;51.020;7.772;2023-03-31T02:58:12;12.90;99.90
19665;DHT22;9980;51.020;7.772;2023-03-31T03:01:21;12.90;99.90
19665;DHT22;9980;51.020;7.772;2023-03-31T03:13:20;12.90;99.90
19665;DHT22;9980;51.020;7.772;2023-03-31T03:16:11;12.90;99.90
19665;DHT22;9980;51.020;7.772;2023-03-31T03:18:59;12.90;99.90
19665;DHT22;9980;51.020;7.772;2023-03-31T03:21:28;12.90;99.90
19665;DHT22;9980;51.020;7.772;2023-03-31T03:23:55;12.90;99.90
19665;DHT22;9980;51.020;7.772;2023-03-31T03:26:22;12.90;99.90
19665;DHT22;9980;51.020;7.772;2023-03-31T03:28:50;12.90;99.90
19665;DHT22;9980;51.020;7.772;2023-03-31T03:31:18;12.90;99.90
19665;DHT22;9980;51.020;7.772;2023-03-31T03:33:46;12.90;99.90
19665;DHT22;9980;51.020;7.772;2023-03-31T03:36:13;12.90;99.90
19665;DHT22;9980;51.020;7.772;2023-03-31T03:38:40;12.80;99.90
19665;DHT22;9980;51.020;7.772;2023-03-31T03:41:07;12.90;99.90
19665;DHT22;9980;51.020;7.772;2023-03-31T03:43:34;12.90;99.90
19665;DHT22;9980;51.020;7.772;2023-03-31T03:46:01;12.80;99.90
19665;DHT22;9980;51.020;7.772;2023-03-31T03:48:28;12.80;99.90
19665;DHT22;9980;51.020;7.772;2023-03-31T03:50:55;12.80;99.90
19665;DHT22;9980;51.020;7.772;2023-03-31T03:53:25;12.80;99.90
19665;DHT22;9980;51.020;7.772;2023-03-31T03:55:52;12.90;99.90
19665;DHT22;9980;51.020;7.772;2023-03-31T03:58:19;12.90;99.90
19665;DHT22;9980;51.020;7.772;2023-03-31T04:00:46;12.80;99.90
19665;DHT22;9980;51.020;7.772;2023-03-31T04:03:13;12.90;99.90
19665;DHT22;9980;51.020;7.772;2023-03-31T04:05:41;12.80;99.90
19665;DHT22;9980;51.020;7.772;2023-03-31T04:08:10;12.80;99.90
19665;DHT22;9980;51.020;7.772;2023-03-31T04:10:37;12.80;99.90
19665;DHT22;9980;51.020;7.772;2023-03-31T04:13:09;12.80;99.90
19665;DHT22;9980;51.020;7.772;2023-03-31T04:15:36;12.80;99.90
19665;DHT22;9980;51.020;7.772;2023-03-31T04:18:03;12.90;99.90
19665;DHT22;9980;51.020;7.772;2023-03-31T04:20:30;12.80;99.90
19665;DHT22;9980;51.020;7.772;2023-03-31T04:22:57;12.80;99.90
19665;DHT22;9980;51.020;7.772;2023-03-31T04:25:24;12.80;99.90
19665;DHT22;9980;51.020;7.772;2023-03-31T04:27:51;12.80;99.90
19665;DHT22;9980;51.020;7.772;2023-03-31T04:30:22;12.80;99.90
19665;DHT22;9980;51.020;7.772;2023-03-31T04:33:04;12.80;99.90
19665;DHT22;9980;51.020;7.772;2023-03-31T04:35:32;12.80;99.90
19665;DHT22;9980;51.020;7.772;2023-03-31T04:38:20;12.80;99.90
19665;DHT22;9980;51.020;7.772;2023-03-31T04:40:50;12.80;99.90
19665;DHT22;9980;51.020;7.772;2023-03-31T04:43:19;12.80;99.90
19665;DHT22;9980;51.020;7.772;2023-03-31T04:45:47;12.80;99.90
19665;DHT22;9980;51.020;7.772;2023-03-31T04:48:13;12.80;99.90
19665;DHT22;9980;51.020;7.772;2023-03-31T04:50:41;12.80;99.90
19665;DHT22;9980;51.020;7.772;2023-03-31T04:53:08;12.80;99.90
19665;DHT22;9980;51.020;7.772;2023-03-31T04:55:34;12.80;99.90
19665;DHT22;9980;51.020;7.772;2023-03-31T04:58:01;12.80;99.90
19665;DHT22;9980;51.020;7.772;2023-03-31T05:00:28;12.80;99.90
19665;DHT22;9980;51.020;7.772;2023-03-31T05:02:55;12.80;99.90
19665;DHT22;9980;51.020;7.772;2023-03-31T05:05:22;12.80;99.90
19665;DHT22;9980;51.020;7.772;2023-03-31T05:07:49;12.80;99.90
19665;DHT22;9980;51.020;7.772;2023-03-31T05:10:16;12.70;99.90
19665;DHT22;9980;51.020;7.772;2023-03-31T05:12:43;12.70;99.90
19665;DHT22;9980;51.020;7.772;2023-03-31T05:15:11;12.70;99.90
19665;DHT22;9980;51.020;7.772;2023-03-31T05:17:38;12.70;99.90
19665;DHT22;9980;51.020;7.772;2023-03-31T05:20:06;12.70;99.90
19665;DHT22;9980;51.020;7.772;2023-03-31T05:22:35;12.80;99.90
19665;DHT22;9980;51.020;7.772;2023-03-31T05:25:06;12.70;99.90
19665;DHT22;9980;51.020;7.772;2023-03-31T05:27:34;12.70;99.90
19665;DHT22;9980;51.020;7.772;2023-03-31T05:30:02;12.70;99.90
19665;DHT22;9980;51.020;7.772;2023-03-31T05:32:30;12.70;99.90
19665;DHT22;9980;51.020;7.772;2023-03-31T05:34:57;12.70;99.90
19665;DHT22;9980;51.020;7.772;2023-03-31T05:37:24;12.70;99.90
19665;DHT22;9980;51.020;7.772;2023-03-31T05:39:52;12.70;99.90
19665;DHT22;9980;51.020;7.772;2023-03-31T05:42:19;12.70;99.90
19665;DHT22;9980;51.020;7.772;2023-03-31T05:44:46;12.70;99.90
19665;DHT22;9980;51.020;7.772;2023-03-31T05:47:14;12.70;99.90
19665;DHT22;9980;51.020;7.772;2023-03-31T05:49:42;12.70;99.90
19665;DHT22;9980;51.020;7.772;2023-03-31T05:52:09;12.70;99.90
19665;DHT22;9980;51.020;7.772;2023-03-31T05:54:36;12.70;99.90
19665;DHT22;9980;51.020;7.772;2023-03-31T05:57:03;12.70;99.90
19665;DHT22;9980;51.020;7.772;2023-03-31T05:59:30;12.70;99.90
19665;DHT22;9980;51.020;7.772;2023-03-31T06:01:57;12.60;99.90
19665;DHT22;9980;51.020;7.772;2023-03-31T06:04:24;12.70;99.90
19665;DHT22;9980;51.020;7.772;2023-03-31T06:06:51;12.70;99.90
19665;DHT22;9980;51.020;7.772;2023-03-31T06:09:19;12.70;99.90
19665;DHT22;9980;51.020;7.772;2023-03-31T06:11:46;12.60;99.90
19665;DHT22;9980;51.020;7.772;2023-03-31T06:14:16;12.60;99.90
19665;DHT22;9980;51.020;7.772;2023-03-31T06:16:43;12.60;99.90
19665;DHT22;9980;51.020;7.772;2023-03-31T06:19:10;12.60;99.90
19665;DHT22;9980;51.020;7.772;2023-03-31T06:21:36;12.60;99.90
19665;DHT22;9980;51.020;7.772;2023-03-31T06:24:03;12.60;99.90
19665;DHT22;9980;51.020;7.772;2023-03-31T06:26:30;12.60;99.90
19665;DHT22;9980;51.020;7.772;2023-03-31T06:28:58;12.60;99.90
19665;DHT22;9980;51.020;7.772;2023-03-31T06:31:24;12.60;99.90
19665;DHT22;9980;51.020;7.772;2023-03-31T06:33:52;12.60;99.90
19665;DHT22;9980;51.020;7.772;2023-03-31T06:36:21;12.50;99.90
19665;DHT22;9980;51.020;7.772;2023-03-31T06:38:49;12.50;99.90
19665;DHT22;9980;51.020;7.772;2023-03-31T06:41:17;12.50;99.90
19665;DHT22;9980;51.020;7.772;2023-03-31T06:43:46;12.50;99.90
19665;DHT22;9980;51.020;7.772;2023-03-31T06:46:14;12.50;99.90
19665;DHT22;9980;51.020;7.772;2023-03-31T06:48:41;12.50;99.90
19665;DHT22;9980;51.020;7.772;2023-03-31T06:51:08;12.50;99.90
19665;DHT22;9980;51.020;7.772;2023-03-31T06:53:36;12.50;99.90
19665;DHT22;9980;51.020;7.772;2023-03-31T06:56:03;12.50;99.90
19665;DHT22;9980;51.020;7.772;2023-03-31T06:58:32;12.50;99.90
19665;DHT22;9980;51.020;7.772;2023-03-31T07:01:02;12.50;99.90
19665;DHT22;9980;51.020;7.772;2023-03-31T07:03:30;12.50;99.90
19665;DHT22;9980;51.020;7.772;2023-03-31T07:05:58;12.50;99.90
19665;DHT22;9980;51.020;7.772;2023-03-31T07:08:26;12.50;99.90
19665;DHT22;9980;51.020;7.772;2023-03-31T07:10:56;12.50;99.90
19665;DHT22;9980;51.020;7.772;2023-03-31T07:13:25;12.50;99.90
19665;DHT22;9980;51.020;7.772;2023-03-31T07:15:52;12.50;99.90
19665;DHT22;9980;51.020;7.772;2023-03-31T07:18:20;12.50;99.90
19665;DHT22;9980;51.020;7.772;2023-03-31T07:20:51;12.50;99.90
19665;DHT22;9980;51.020;7.772;2023-03-31T07:23:19;12.50;99.90
19665;DHT22;9980;51.020;7.772;2023-03-31T07:25:47;12.60;99.90
19665;DHT22;9980;51.020;7.772;2023-03-31T07:28:14;12.50;99.90
19665;DHT22;9980;51.020;7.772;2023-03-31T07:30:41;12.60;99.90
19665;DHT22;9980;51.020;7.772;2023-03-31T07:33:08;12.60;99.90
19665;DHT22;9980;51.020;7.772;2023-03-31T07:35:41;12.50;99.90
19665;DHT22;9980;51.020;7.772;2023-03-31T07:38:09;12.50;99.90
19665;DHT22;9980;51.020;7.772;2023-03-31T07:40:38;12.50;99.90
19665;DHT22;9980;51.020;7.772;2023-03-31T07:43:05;12.50;99.90
19665;DHT22;9980;51.020;7.772;2023-03-31T07:45:34;12.50;99.90
19665;DHT22;9980;51.020;7.772;2023-03-31T07:48:01;12.50;99.90
19665;DHT22;9980;51.020;7.772;2023-03-31T07:50:28;12.60;99.90
19665;DHT22;9980;51.020;7.772;2023-03-31T07:52:57;12.50;99.90
19665;DHT22;9980;51.020;7.772;2023-03-31T07:55:24;12.60;99.90
19665;DHT22;9980;51.020;7.772;2023-03-31T07:57:52;12.60;99.90
19665;DHT22;9980;51.020;7.772;2023-03-31T08:00:19;12.60;99.90
19665;DHT22;9980;51.020;7.772;2023-03-31T08:02:46;12.70;99.90
19665;DHT22;9980;51.020;7.772;2023-03-31T08:05:15;12.70;99.90
19665;DHT22;9980;51.020;7.772;2023-03-31T08:07:46;12.80;99.90
19665;DHT22;9980;51.020;7.772;2023-03-31T08:10:18;12.80;99.90
19665;DHT22;9980;51.020;7.772;2023-03-31T08:12:47;12.80;99.90
19665;DHT22;9980;51.020;7.772;2023-03-31T08:15:15;12.90;99.90
19665;DHT22;9980;51.020;7.772;2023-03-31T08:17:42;12.90;99.90
19665;DHT22;9980;51.020;7.772;2023-03-31T08:20:09;12.90;99.90
19665;DHT22;9980;51.020;7.772;2023-03-31T08:22:38;13.00;99.90
19665;DHT22;9980;51.020;7.772;2023-03-31T08:25:06;13.00;99.90
19665;DHT22;9980;51.020;7.772;2023-03-31T08:27:36;13.00;99.90
19665;DHT22;9980;51.020;7.772;2023-03-31T08:30:06;13.10;99.90
19665;DHT22;9980;51.020;7.772;2023-03-31T08:32:35;13.10;99.90
19665;DHT22;9980;51.020;7.772;2023-03-31T08:35:03;13.20;99.90
19665;DHT22;9980;51.020;7.772;2023-03-31T08:37:30;13.20;99.90
19665;DHT22;9980;51.020;7.772;2023-03-31T08:39:58;13.30;99.90
19665;DHT22;9980;51.020;7.772;2023-03-31T08:42:38;13.30;99.90
19665;DHT22;9980;51.020;7.772;2023-03-31T08:48:13;13.50;99.90
19665;DHT22;9980;51.020;7.772;2023-03-31T08:50:47;13.60;99.90
19665;DHT22;9980;51.020;7.772;2023-03-31T08:53:34;13.70;99.90
19665;DHT22;9980;51.020;7.772;2023-03-31T08:56:08;13.80;99.90
19665;DHT22;9980;51.020;7.772;2023-03-31T08:58:47;13.90;99.90
19665;DHT22;9980;51.020;7.772;2023-03-31T09:10:55;14.40;99.90
19665;DHT22;9980;51.020;7.772;2023-03-31T09:16:25;14.70;99.90
19665;DHT22;9980;51.020;7.772;2023-03-31T09:19:00;14.80;99.90
19665;DHT22;9980;51.020;7.772;2023-03-31T09:21:39;14.90;99.90
19665;DHT22;9980;51.020;7.772;2023-03-31T09:24:24;14.90;99.90
19665;DHT22;9980;51.020;7.772;2023-03-31T09:27:06;15.00;99.90
19665;DHT22;9980;51.020;7.772;2023-03-31T09:34:47;15.10;99.90
19665;DHT22;9980;51.020;7.772;2023-03-31T09:37:18;15.10;99.90
19665;DHT22;9980;51.020;7.772;2023-03-31T09:39:45;15.20;99.90
19665;DHT22;9980;51.020;7.772;2023-03-31T09:42:13;15.20;99.90
19665;DHT22;9980;51.020;7.772;2023-03-31T09:44:43;15.20;99.90
19665;DHT22;9980;51.020;7.772;2023-03-31T09:47:34;15.30;99.90
19665;DHT22;9980;51.020;7.772;2023-03-31T09:50:07;15.30;99.90
19665;DHT22;9980;51.020;7.772;2023-03-31T09:52:52;15.40;99.90
19665;DHT22;9980;51.020;7.772;2023-03-31T09:55:25;15.50;99.90
19665;DHT22;9980;51.020;7.772;2023-03-31T09:58:15;15.60;99.90
19665;DHT22;9980;51.020;7.772;2023-03-31T10:00:58;15.70;99.90
19665;DHT22;9980;51.020;7.772;2023-03-31T10:03:31;15.70;99.90
19665;DHT22;9980;51.020;7.772;2023-03-31T10:06:08;15.80;99.90
19665;DHT22;9980;51.020;7.772;2023-03-31T10:08:40;15.80;99.90
19665;DHT22;9980;51.020;7.772;2023-03-31T10:11:11;15.80;99.90
19665;DHT22;9980;51.020;7.772;2023-03-31T10:13:48;15.90;99.90
19665;DHT22;9980;51.020;7.772;2023-03-31T10:16:33;15.90;99.90
19665;DHT22;9980;51.020;7.772;2023-03-31T10:19:23;16.00;99.90
19665;DHT22;9980;51.020;7.772;2023-03-31T10:22:13;16.00;99.90
19665;DHT22;9980;51.020;7.772;2023-03-31T10:24:44;16.00;99.90
19665;DHT22;9980;51.020;7.772;2023-03-31T10:27:27;16.10;99.90
19665;DHT22;9980;51.020;7.772;2023-03-31T10:29:58;16.10;99.90
19665;DHT22;9980;51.020;7.772;2023-03-31T10:32:43;16.10;99.90
19665;DHT22;9980;51.020;7.772;2023-03-31T10:35:29;16.20;99.90
19665;DHT22;9980;51.020;7.772;2023-03-31T10:38:03;16.20;99.90
19665;DHT22;9980;51.020;7.772;2023-03-31T10:40:37;16.20;99.90
19665;DHT22;9980;51.020;7.772;2023-03-31T10:43:14;16.30;99.90
19665;DHT22;9980;51.020;7.772;2023-03-31T10:45:51;16.30;99.90
19665;DHT22;9980;51.020;7.772;2023-03-31T10:48:35;16.40;99.90
19665;DHT22;9980;51.020;7.772;2023-03-31T10:51:24;16.40;99.90
19665;DHT22;9980;51.020;7.772;2023-03-31T10:53:54;16.50;99.90
19665;DHT22;9980;51.020;7.772;2023-03-31T10:56:38;16.60;99.90
19665;DHT22;9980;51.020;7.772;2023-03-31T11:16:51;17.00;99.20
19665;DHT22;9980;51.020;7.772;2023-03-31T11:28:39;16.90;99.90
19665;DHT22;9980;51.020;7.772;2023-03-31T11:34:39;17.00;99.90
19665;DHT22;9980;51.020;7.772;2023-03-31T11:40:35;17.00;99.90
19665;DHT22;9980;51.020;7.772;2023-03-31T11:43:27;17.10;99.90
19665;DHT22;9980;51.020;7.772;2023-03-31T11:46:03;17.00;99.80
19665;DHT22;9980;51.020;7.772;2023-03-31T11:48:57;17.00;99.60
19665;DHT22;9980;51.020;7.772;2023-03-31T11:51:40;17.00;99.20
19665;DHT22;9980;51.020;7.772;2023-03-31T11:54:22;17.00;99.80
19665;DHT22;9980;51.020;7.772;2023-03-31T11:56:51;17.00;99.80
19665;DHT22;9980;51.020;7.772;2023-03-31T11:59:19;17.00;99.80
19665;DHT22;9980;51.020;7.772;2023-03-31T12:02:00;17.00;99.60
19665;DHT22;9980;51.020;7.772;2023-03-31T12:04:44;17.10;99.50
19665;DHT22;9980;51.020;7.772;2023-03-31T12:07:30;17.10;99.10
19665;DHT22;9980;51.020;7.772;2023-03-31T12:12:58;17.20;98.30
19665;DHT22;9980;51.020;7.772;2023-03-31T12:15:45;17.20;97.90
19665;DHT22;9980;51.020;7.772;2023-03-31T12:18:31;17.20;97.80
19665;DHT22;9980;51.020;7.772;2023-03-31T12:21:04;17.30;97.80
19665;DHT22;9980;51.020;7.772;2023-03-31T12:23:40;17.30;98.10
19665;DHT22;9980;51.020;7.772;2023-03-31T12:29:24;17.30;97.40
19665;DHT22;9980;51.020;7.772;2023-03-31T12:32:11;17.40;97.50
19665;DHT22;9980;51.020;7.772;2023-03-31T12:34:55;17.50;97.70
19665;DHT22;9980;51.020;7.772;2023-03-31T12:41:04;17.60;97.60
19665;DHT22;9980;51.020;7.772;2023-03-31T12:44:20;17.70;97.20
19665;DHT22;9980;51.020;7.772;2023-03-31T12:59:38;17.70;97.40
19665;DHT22;9980;51.020;7.772;2023-03-31T13:02:15;17.70;97.20
19665;DHT22;9980;51.020;7.772;2023-03-31T13:04:47;17.60;97.30
19665;DHT22;9980;51.020;7.772;2023-03-31T13:12:40;17.60;97.00
19665;DHT22;9980;51.020;7.772;2023-03-31T13:15:12;17.60;97.10
19665;DHT22;9980;51.020;7.772;2023-03-31T13:17:41;17.60;97.20
19665;DHT22;9980;51.020;7.772;2023-03-31T13:20:29;17.60;97.50
19665;DHT22;9980;51.020;7.772;2023-03-31T13:23:19;17.60;97.30
19665;DHT22;9980;51.020;7.772;2023-03-31T13:47:09;17.80;96.40
19665;DHT22;9980;51.020;7.772;2023-03-31T13:52:30;17.80;96.50
19665;DHT22;9980;51.020;7.772;2023-03-31T13:55:48;17.80;96.30
19665;DHT22;9980;51.020;7.772;2023-03-31T13:58:27;17.80;96.60
19665;DHT22;9980;51.020;7.772;2023-03-31T14:04:15;17.80;96.70
19665;DHT22;9980;51.020;7.772;2023-03-31T14:07:11;17.70;96.80
19665;DHT22;9980;51.020;7.772;2023-03-31T14:09:44;17.60;96.80
19665;DHT22;9980;51.020;7.772;2023-03-31T14:12:33;17.50;96.50
19665;DHT22;9980;51.020;7.772;2023-03-31T14:15:03;17.30;96.50
19665;DHT22;9980;51.020;7.772;2023-03-31T14:17:37;17.10;96.20
19665;DHT22;9980;51.020;7.772;2023-03-31T14:26:49;16.50;96.90
19665;DHT22;9980;51.020;7.772;2023-03-31T14:29:41;16.30;97.20
19665;DHT22;9980;51.020;7.772;2023-03-31T14:33:03;16.10;97.70
19665;DHT22;9980;51.020;7.772;2023-03-31T14:38:28;15.90;98.20
19665;DHT22;9980;51.020;7.772;2023-03-31T14:40:56;15.80;98.70
19665;DHT22;9980;51.020;7.772;2023-03-31T14:43:28;15.80;98.90
19665;DHT22;9980;51.020;7.772;2023-03-31T14:46:08;15.80;99.30
19665;DHT22;9980;51.020;7.772;2023-03-31T14:48:46;15.80;99.40
19665;DHT22;9980;51.020;7.772;2023-03-31T14:51:15;15.80;99.70
19665;DHT22;9980;51.020;7.772;2023-03-31T14:54:00;15.80;99.60
19665;DHT22;9980;51.020;7.772;2023-03-31T14:56:37;15.90;99.40
19665;DHT22;9980;51.020;7.772;2023-03-31T14:59:06;15.90;99.70
19665;DHT22;9980;51.020;7.772;2023-03-31T15:01:35;15.90;99.80
19665;DHT22;9980;51.020;7.772;2023-03-31T15:04:10;15.90;99.90
19665;DHT22;9980;51.020;7.772;2023-03-31T15:06:44;15.90;99.90
19665;DHT22;9980;51.020;7.772;2023-03-31T15:09:19;15.90;99.90
19665;DHT22;9980;51.020;7.772;2023-03-31T15:11:59;16.00;99.90
19665;DHT22;9980;51.020;7.772;2023-03-31T15:14:35;16.00;99.90
19665;DHT22;9980;51.020;7.772;2023-03-31T15:17:17;16.10;99.90
19665;DHT22;9980;51.020;7.772;2023-03-31T15:19:50;16.10;99.90
19665;DHT22;9980;51.020;7.772;2023-03-31T15:22:22;16.20;99.90
19665;DHT22;9980;51.020;7.772;2023-03-31T15:24:52;16.20;99.90
19665;DHT22;9980;51.020;7.772;2023-03-31T15:27:26;16.20;99.90
19665;DHT22;9980;51.020;7.772;2023-03-31T15:30:11;16.20;99.90
19665;DHT22;9980;51.020;7.772;2023-03-31T15:32:42;16.20;99.90
19665;DHT22;9980;51.020;7.772;2023-03-31T15:35:31;16.20;99.90
19665;DHT22;9980;51.020;7.772;2023-03-31T15:38:02;16.20;99.90
19665;DHT22;9980;51.020;7.772;2023-03-31T15:40:35;16.20;99.90
19665;DHT22;9980;51.020;7.772;2023-03-31T15:43:12;16.20;99.80
19665;DHT22;9980;51.020;7.772;2023-03-31T15:45:58;16.20;99.80
19665;DHT22;9980;51.020;7.772;2023-03-31T15:51:02;16.20;99.80
19665;DHT22;9980;51.020;7.772;2023-03-31T15:53:50;16.10;99.70
19665;DHT22;9980;51.020;7.772;2023-03-31T15:56:29;16.10;99.70
19665;DHT22;9980;51.020;7.772;2023-03-31T15:59:04;16.00;99.60
19665;DHT22;9980;51.020;7.772;2023-03-31T16:01:34;16.00;99.60
19665;DHT22;9980;51.020;7.772;2023-03-31T16:04:10;15.90;99.80
19665;DHT22;9980;51.020;7.772;2023-03-31T16:06:46;15.90;99.90
19665;DHT22;9980;51.020;7.772;2023-03-31T16:12:33;15.90;99.90
19665;DHT22;9980;51.020;7.772;2023-03-31T16:15:17;15.80;99.90
19665;DHT22;9980;51.020;7.772;2023-03-31T16:17:54;15.80;99.90
19665;DHT22;9980;51.020;7.772;2023-03-31T16:20:29;15.80;99.90
19665;DHT22;9980;51.020;7.772;2023-03-31T16:23:20;15.80;99.90
19665;DHT22;9980;51.020;7.772;2023-03-31T16:25:51;15.80;99.90
19665;DHT22;9980;51.020;7.772;2023-03-31T16:28:21;15.70;99.90
19665;DHT22;9980;51.020;7.772;2023-03-31T16:30:52;15.70;99.90
19665;DHT22;9980;51.020;7.772;2023-03-31T16:33:21;15.60;99.90
19665;DHT22;9980;51.020;7.772;2023-03-31T16:35:53;15.60;99.90
19665;DHT22;9980;51.020;7.772;2023-03-31T16:38:28;15.60;99.90
19665;DHT22;9980;51.020;7.772;2023-03-31T16:40:56;15.60;99.90
19665;DHT22;9980;51.020;7.772;2023-03-31T16:43:26;15.50;99.90
19665;DHT22;9980;51.020;7.772;2023-03-31T16:45:56;15.40;99.90
19665;DHT22;9980;51.020;7.772;2023-03-31T16:48:26;15.40;99.90
19665;DHT22;9980;51.020;7.772;2023-03-31T16:50:56;15.30;99.90
19665;DHT22;9980;51.020;7.772;2023-03-31T16:53:26;15.30;99.90
19665;DHT22;9980;51.020;7.772;2023-03-31T16:55:55;15.20;99.90
19665;DHT22;9980;51.020;7.772;2023-03-31T16:58:23;15.20;99.90
19665;DHT22;9980;51.020;7.772;2023-03-31T17:00:52;15.10;99.90
19665;DHT22;9980;51.020;7.772;2023-03-31T17:03:19;15.10;99.90
19665;DHT22;9980;51.020;7.772;2023-03-31T17:05:50;15.00;99.90
19665;DHT22;9980;51.020;7.772;2023-03-31T17:08:24;14.90;99.90
19665;DHT22;9980;51.020;7.772;2023-03-31T17:11:02;14.90;99.90
19665;DHT22;9980;51.020;7.772;2023-03-31T17:13:31;14.80;99.90
19665;DHT22;9980;51.020;7.772;2023-03-31T17:15:59;14.70;99.90
19665;DHT22;9980;51.020;7.772;2023-03-31T17:18:44;14.70;99.90
19665;DHT22;9980;51.020;7.772;2023-03-31T17:21:13;14.70;99.90
19665;DHT22;9980;51.020;7.772;2023-03-31T17:23:42;14.60;99.90
19665;DHT22;9980;51.020;7.772;2023-03-31T17:26:09;14.60;99.90
19665;DHT22;9980;51.020;7.772;2023-03-31T17:28:41;14.50;99.90
19665;DHT22;9980;51.020;7.772;2023-03-31T17:31:12;14.50;99.90
19665;DHT22;9980;51.020;7.772;2023-03-31T17:33:41;14.40;99.90
19665;DHT22;9980;51.020;7.772;2023-03-31T17:36:09;14.40;99.90
19665;DHT22;9980;51.020;7.772;2023-03-31T17:38:36;14.40;99.90
19665;DHT22;9980;51.020;7.772;2023-03-31T17:41:11;14.40;99.90
19665;DHT22;9980;51.020;7.772;2023-03-31T17:43:40;14.40;99.90
19665;DHT22;9980;51.020;7.772;2023-03-31T17:46:10;14.30;99.90
19665;DHT22;9980;51.020;7.772;2023-03-31T17:48:39;14.30;99.90
19665;DHT22;9980;51.020;7.772;2023-03-31T17:51:08;14.30;99.90
19665;DHT22;9980;51.020;7.772;2023-03-31T17:53:39;14.30;99.90
19665;DHT22;9980;51.020;7.772;2023-03-31T17:56:14;14.20;99.90
19665;DHT22;9980;51.020;7.772;2023-03-31T17:58:42;14.20;99.90
19665;DHT22;9980;51.020;7.772;2023-03-31T18:01:10;14.20;99.90
19665;DHT22;9980;51.020;7.772;2023-03-31T18:03:38;14.20;99.90
19665;DHT22;9980;51.020;7.772;2023-03-31T18:06:09;14.10;99.90
19665;DHT22;9980;51.020;7.772;2023-03-31T18:08:39;14.10;99.90
19665;DHT22;9980;51.020;7.772;2023-03-31T18:11:09;14.10;99.90
19665;DHT22;9980;51.020;7.772;2023-03-31T18:13:38;14.10;99.90
19665;DHT22;9980;51.020;7.772;2023-03-31T18:16:06;14.00;99.90
19665;DHT22;9980;51.020;7.772;2023-03-31T18:18:38;14.00;99.90
19665;DHT22;9980;51.020;7.772;2023-03-31T18:21:09;14.00;99.90
19665;DHT22;9980;51.020;7.772;2023-03-31T18:23:38;14.00;99.90
19665;DHT22;9980;51.020;7.772;2023-03-31T18:26:10;13.90;99.90
19665;DHT22;9980;51.020;7.772;2023-03-31T18:28:38;13.90;99.90
19665;DHT22;9980;51.020;7.772;2023-03-31T18:31:06;13.90;99.90
19665;DHT22;9980;51.020;7.772;2023-03-31T18:33:34;13.90;99.90
19665;DHT22;9980;51.020;7.772;2023-03-31T18:36:01;13.80;99.90
19665;DHT22;9980;51.020;7.772;2023-03-31T18:38:28;13.80;99.90
19665;DHT22;9980;51.020;7.772;2023-03-31T18:40:55;13.80;99.90
19665;DHT22;9980;51.020;7.772;2023-03-31T18:43:23;13.80;99.90
19665;DHT22;9980;51.020;7.772;2023-03-31T18:45:52;13.80;99.90
19665;DHT22;9980;51.020;7.772;2023-03-31T18:48:21;13.80;99.90
19665;DHT22;9980;51.020;7.772;2023-03-31T18:50:49;13.70;99.90
19665;DHT22;9980;51.020;7.772;2023-03-31T18:53:21;13.70;99.90
19665;DHT22;9980;51.020;7.772;2023-03-31T18:55:56;13.70;99.90
19665;DHT22;9980;51.020;7.772;2023-03-31T18:58:25;13.70;99.90
19665;DHT22;9980;51.020;7.772;2023-03-31T19:00:55;13.70;99.90
19665;DHT22;9980;51.020;7.772;2023-03-31T19:03:23;13.60;99.90
19665;DHT22;9980;51.020;7.772;2023-03-31T19:05:58;13.60;99.90